Terminal Aerodrome Forecast
Issued by NWS

Current Version | Previous Version | Text Only | Print | Product List | Glossary On
Versions: 1 2 3 4 5 6 7 8 9 10 11 12 13 14 15 16 17 18 19 20 21 22
000
FTAK31 PAFA 310538
TAFASC
TAF
PASC 310538Z 3106/0106 26010KT P6SM VCSH OVC028
     FM311200 29008KT P6SM VCSH OVC025
     FM311800 36008KT P6SM VCSH OVC015
     FM312100 04010KT P6SM OVC015=

USA.gov is the U.S. government's official web portal to all federal, state and local government web resources and services.